Time;durP1;ratioP1;P1;durP2;ratioP2;P2;SDS_P1;SDS_P2;PMS_P1;PMS_P2;Temp;Humidity;BMP_temperature;BMP_pressure;BME280_temperature;BME280_humidity;BME280_pressure;Samples;Min_cycle;Max_cycle;Signal;HPM_P1;HPM_P2
2023/03/03 00:00:28;;;;;;;;;;;;;;;;;;5042161;27;118070;-63
2023/03/03 00:02:54;;;;;;;;;;;;;;;;;;5041431;27;112743;-63
2023/03/03 00:05:21;;;;;;;;;;;;;;;;;;5056633;27;119815;-63
2023/03/03 00:07:48;;;;;;;;;;;;;;;;;;5039633;27;113846;-63
2023/03/03 00:10:14;;;;;;;;;;;;;;;;;;5046545;27;118383;-63
2023/03/03 00:12:40;;;;;;;;;;;;;;;;;;5042884;27;121082;-63
2023/03/03 00:15:07;;;;;;;;;;;;;;;;;;5042982;27;114195;-63
2023/03/03 00:17:33;;;;;;;;;;;;;;;;;;5050471;27;119074;-63
2023/03/03 00:19:59;;;;;;;;;;;;;;;;;;5047660;27;119569;-63
2023/03/03 00:22:26;;;;;;;;;;;;;;;;;;5039160;27;112522;-63
2023/03/03 00:24:52;;;;;;;;;;;;;;;;;;5041764;27;119197;-63
2023/03/03 00:27:18;;;;;;;;;;;;;;;;;;5045399;27;119706;-63
2023/03/03 00:29:45;;;;;;;;;;;;;;;;;;5040648;27;119299;-63
2023/03/03 00:32:11;;;;;;;;;;;;;;;;;;5041759;27;119750;-63
2023/03/03 00:34:37;;;;;;;;;;;;;;;;;;5055539;27;114004;-63
2023/03/03 00:37:03;;;;;;;;;;;;;;;;;;5053062;27;119182;-63
2023/03/03 00:39:29;;;;;;;;;;;;;;;;;;5044788;27;119584;-63
2023/03/03 00:41:56;;;;;;;;;;;;;;;;;;5042368;27;114595;-63
2023/03/03 00:44:22;;;;;;;;;;;;;;;;;;5044047;27;119120;-63
2023/03/03 00:46:48;;;;;;;;;;;;;;;;;;5054665;27;118397;-63
2023/03/03 00:49:15;;;;;;;;;;;;;;;;;;5052978;27;113487;-63
2023/03/03 00:51:41;;;;;;;;;;;;;;;;;;5038814;28;119833;-63
2023/03/03 00:54:07;;;;;;;;;;;;;;;;;;5041777;27;113069;-63
2023/03/03 00:56:33;;;;;;;;;;;;;;;;;;5046931;27;118942;-63
2023/03/03 00:58:59;;;;;;;;;;;;;;;;;;5040623;27;119647;-63
2023/03/03 01:01:26;;;;;;;;;;;;;;;;;;5047688;27;114397;-63
2023/03/03 01:03:52;;;;;;;;;;;;;;;;;;5037684;27;117994;-63
2023/03/03 01:06:18;;;;;;;;;;;;;;;;;;5038027;28;119693;-63
2023/03/03 01:08:44;;;;;;;;;;;;;;;;;;5046038;27;113919;-62
2023/03/03 01:11:11;;;;;;;;;;;;;;;;;;5051825;27;119628;-63
2023/03/03 01:13:37;;;;;;;;;;;;;;;;;;5046254;27;114174;-63
2023/03/03 01:16:03;;;;;;;;;;;;;;;;;;5046180;27;119464;-63
2023/03/03 01:18:29;;;;;;;;;;;;;;;;;;5044938;27;119127;-63
2023/03/03 01:20:55;;;;;;;;;;;;;;;;;;5057010;27;114056;-63
2023/03/03 01:23:22;;;;;;;;;;;;;;;;;;5044866;27;119074;-63
2023/03/03 01:25:48;;;;;;;;;;;;;;;;;;5043974;27;120957;-63
2023/03/03 01:28:14;;;;;;;;;;;;;;;;;;5050151;27;113928;-63
2023/03/03 01:30:40;;;;;;;;;;;;;;;;;;5042365;27;119784;-63
2023/03/03 01:33:06;;;;;;;;;;;;;;;;;;5047307;27;119395;-63
2023/03/03 01:35:35;;;;;;;;;;;;;;;;;;5042822;27;119304;-63
2023/03/03 01:38:01;;;;;;;;;;;;;;;;;;5051061;27;119823;-63
2023/03/03 01:40:27;;;;;;;;;;;;;;;;;;5039779;27;113687;-63
2023/03/03 01:42:54;;;;;;;;;;;;;;;;;;5039742;27;118605;-63
2023/03/03 01:45:20;;;;;;;;;;;;;;;;;;5050152;27;119784;-64
2023/03/03 01:47:46;;;;;;;;;;;;;;;;;;5050022;27;113869;-63
2023/03/03 01:50:12;;;;;;;;;;;;;;;;;;5039366;27;118999;-63
2023/03/03 01:52:38;;;;;;;;;;;;;;;;;;5052790;27;119299;-63
2023/03/03 01:55:04;;;;;;;;;;;;;;;;;;5039554;28;114023;-63
2023/03/03 01:57:31;;;;;;;;;;;;;;;;;;5054352;27;119301;-63
2023/03/03 01:59:57;;;;;;;;;;;;;;;;;;5038818;27;114462;-63
2023/03/03 02:02:23;;;;;;;;;;;;;;;;;;5036228;28;119221;-63
2023/03/03 02:04:49;;;;;;;;;;;;;;;;;;5039469;27;119605;-63
2023/03/03 02:07:16;;;;;;;;;;;;;;;;;;5047598;27;114376;-63
2023/03/03 02:09:42;;;;;;;;;;;;;;;;;;5055142;27;118242;-63
2023/03/03 02:12:08;;;;;;;;;;;;;;;;;;5057731;27;117783;-64
2023/03/03 02:14:34;;;;;;;;;;;;;;;;;;5055942;27;114092;-63
2023/03/03 02:17:00;;;;;;;;;;;;;;;;;;5059024;27;119545;-63
2023/03/03 02:19:27;;;;;;;;;;;;;;;;;;5061685;27;114351;-63
2023/03/03 02:21:53;;;;;;;;;;;;;;;;;;5060956;27;119081;-63
2023/03/03 02:24:19;;;;;;;;;;;;;;;;;;5045976;27;117262;-63
2023/03/03 02:26:45;;;;;;;;;;;;;;;;;;5051282;27;113952;-63
2023/03/03 02:29:11;;;;;;;;;;;;;;;;;;5053858;27;118989;-63
2023/03/03 02:31:37;;;;;;;;;;;;;;;;;;5044568;27;118140;-63
2023/03/03 02:34:04;;;;;;;;;;;;;;;;;;5060733;27;113704;-63
2023/03/03 02:36:30;;;;;;;;;;;;;;;;;;5054301;27;119083;-63
2023/03/03 02:38:56;;;;;;;;;;;;;;;;;;5047774;27;114089;-63
2023/03/03 02:41:22;;;;;;;;;;;;;;;;;;5046256;27;119849;-63
2023/03/03 02:43:48;;;;;;;;;;;;;;;;;;5053238;27;120369;-63
2023/03/03 02:46:15;;;;;;;;;;;;;;;;;;5058719;27;114129;-65
2023/03/03 02:48:41;;;;;;;;;;;;;;;;;;5042128;27;118980;-63
2023/03/03 02:51:07;;;;;;;;;;;;;;;;;;5057088;27;119841;-63
2023/03/03 02:53:33;;;;;;;;;;;;;;;;;;5048157;27;112530;-63
2023/03/03 02:55:59;;;;;;;;;;;;;;;;;;5040892;27;117472;-63
2023/03/03 02:58:26;;;;;;;;;;;;;;;;;;5044432;27;119865;-63
2023/03/03 03:00:52;;;;;;;;;;;;;;;;;;5041040;27;119043;-63
2023/03/03 03:03:18;;;;;;;;;;;;;;;;;;5042223;27;119047;-63
2023/03/03 03:05:44;;;;;;;;;;;;;;;;;;5046301;27;114004;-63
2023/03/03 03:08:11;;;;;;;;;;;;;;;;;;5048757;27;118293;-64
2023/03/03 03:10:37;;;;;;;;;;;;;;;;;;5038408;28;120129;-63
2023/03/03 03:13:03;;;;;;;;;;;;;;;;;;5048567;27;114034;-63
2023/03/03 03:15:29;;;;;;;;;;;;;;;;;;5055090;27;118305;-63
2023/03/03 03:17:56;;;;;;;;;;;;;;;;;;5048338;27;119540;-63
2023/03/03 03:20:22;;;;;;;;;;;;;;;;;;5061090;27;114559;-64
2023/03/03 03:22:48;;;;;;;;;;;;;;;;;;5047147;27;119249;-64
2023/03/03 03:25:14;;;;;;;;;;;;;;;;;;5051769;27;114189;-63
2023/03/03 03:27:40;;;;;;;;;;;;;;;;;;5042957;27;119145;-63
2023/03/03 03:30:07;;;;;;;;;;;;;;;;;;5039706;27;118016;-63
2023/03/03 03:32:33;;;;;;;;;;;;;;;;;;5045585;27;113873;-63
2023/03/03 03:34:59;;;;;;;;;;;;;;;;;;5057904;27;119040;-63
2023/03/03 03:37:25;;;;;;;;;;;;;;;;;;5051885;27;119469;-63
2023/03/03 03:39:52;;;;;;;;;;;;;;;;;;5041123;27;113925;-63
2023/03/03 03:42:18;;;;;;;;;;;;;;;;;;5057926;27;118399;-63
2023/03/03 03:44:45;;;;;;;;;;;;;;;;;;5057269;27;113935;-63
2023/03/03 03:47:11;;;;;;;;;;;;;;;;;;5056855;27;118362;-63
2023/03/03 03:49:37;;;;;;;;;;;;;;;;;;5057409;27;119500;-63
2023/03/03 03:52:03;;;;;;;;;;;;;;;;;;5056563;27;114123;-64
2023/03/03 03:54:29;;;;;;;;;;;;;;;;;;5038478;28;120316;-63
2023/03/03 03:56:56;;;;;;;;;;;;;;;;;;5038009;27;119724;-63
2023/03/03 03:59:22;;;;;;;;;;;;;;;;;;5039351;27;113930;-63
2023/03/03 04:01:49;;;;;;;;;;;;;;;;;;5043033;27;118860;-63
2023/03/03 04:04:15;;;;;;;;;;;;;;;;;;5046598;27;119783;-63
2023/03/03 04:06:41;;;;;;;;;;;;;;;;;;5043184;27;118965;-63
2023/03/03 04:09:07;;;;;;;;;;;;;;;;;;5042132;27;118970;-63
2023/03/03 04:11:33;;;;;;;;;;;;;;;;;;5048888;27;113937;-63
2023/03/03 04:13:59;;;;;;;;;;;;;;;;;;5039492;27;119685;-63
2023/03/03 04:16:26;;;;;;;;;;;;;;;;;;5049217;27;120561;-63
2023/03/03 04:18:52;;;;;;;;;;;;;;;;;;5057325;27;114028;-63
2023/03/03 04:21:18;;;;;;;;;;;;;;;;;;5049792;27;118009;-63
2023/03/03 04:23:45;;;;;;;;;;;;;;;;;;5051410;27;119825;-63
2023/03/03 04:26:11;;;;;;;;;;;;;;;;;;5038478;27;119648;-63
2023/03/03 04:28:37;;;;;;;;;;;;;;;;;;5040939;27;117855;-63
2023/03/03 04:31:04;;;;;;;;;;;;;;;;;;5056238;27;113896;-63
2023/03/03 04:33:30;;;;;;;;;;;;;;;;;;5051926;27;119520;-63
2023/03/03 04:35:56;;;;;;;;;;;;;;;;;;5050594;27;120125;-63
2023/03/03 04:38:22;;;;;;;;;;;;;;;;;;5047751;27;114061;-63
2023/03/03 04:40:49;;;;;;;;;;;;;;;;;;5036515;27;118746;-64
2023/03/03 04:43:15;;;;;;;;;;;;;;;;;;5046794;27;118334;-64
2023/03/03 04:45:41;;;;;;;;;;;;;;;;;;5058875;27;113450;-63
2023/03/03 04:48:08;;;;;;;;;;;;;;;;;;5051590;27;119825;-64
2023/03/03 04:50:34;;;;;;;;;;;;;;;;;;5042990;27;114479;-64
2023/03/03 04:53:00;;;;;;;;;;;;;;;;;;5056891;27;117257;-63
2023/03/03 04:55:26;;;;;;;;;;;;;;;;;;5050873;27;119709;-63
2023/03/03 04:57:53;;;;;;;;;;;;;;;;;;5042015;27;114110;-63
2023/03/03 05:00:19;;;;;;;;;;;;;;;;;;5058468;27;118061;-63
2023/03/03 05:02:45;;;;;;;;;;;;;;;;;;5053506;27;120169;-63
2023/03/03 05:05:12;;;;;;;;;;;;;;;;;;5053344;27;113645;-64
2023/03/03 05:07:38;;;;;;;;;;;;;;;;;;5059678;27;119304;-64
2023/03/03 05:10:04;;;;;;;;;;;;;;;;;;5056699;27;114059;-63
2023/03/03 05:12:31;;;;;;;;;;;;;;;;;;5051286;27;117490;-64
2023/03/03 05:14:57;;;;;;;;;;;;;;;;;;5041864;27;119606;-63
2023/03/03 05:17:23;;;;;;;;;;;;;;;;;;5056438;27;113982;-64
2023/03/03 05:19:49;;;;;;;;;;;;;;;;;;5058905;27;117719;-63
2023/03/03 05:22:16;;;;;;;;;;;;;;;;;;5055461;27;118993;-63
2023/03/03 05:24:42;;;;;;;;;;;;;;;;;;5040726;27;113942;-64
2023/03/03 05:27:10;;;;;;;;;;;;;;;;;;5051034;27;119216;-64
2023/03/03 05:29:36;;;;;;;;;;;;;;;;;;5047629;27;118633;-63
2023/03/03 05:32:03;;;;;;;;;;;;;;;;;;5055617;27;119178;-64
2023/03/03 05:34:29;;;;;;;;;;;;;;;;;;5040080;27;119654;-63
2023/03/03 05:36:55;;;;;;;;;;;;;;;;;;5053691;27;113934;-64
2023/03/03 05:39:22;;;;;;;;;;;;;;;;;;5058152;27;119210;-63
2023/03/03 05:41:48;;;;;;;;;;;;;;;;;;5056695;27;119602;-63
2023/03/03 05:44:15;;;;;;;;;;;;;;;;;;5058025;27;113502;-64
2023/03/03 05:46:41;;;;;;;;;;;;;;;;;;5059294;27;119058;-63
2023/03/03 05:49:07;;;;;;;;;;;;;;;;;;5060375;27;120223;-65
2023/03/03 05:51:34;;;;;;;;;;;;;;;;;;5062903;27;114326;-63
2023/03/03 05:54:00;;;;;;;;;;;;;;;;;;5060017;27;120716;-63
2023/03/03 05:56:26;;;;;;;;;;;;;;;;;;5053627;27;114259;-63
2023/03/03 05:58:52;;;;;;;;;;;;;;;;;;5054722;27;119700;-63
2023/03/03 06:01:19;;;;;;;;;;;;;;;;;;5057092;27;119725;-64
2023/03/03 06:03:45;;;;;;;;;;;;;;;;;;5058670;27;114241;-64
2023/03/03 06:06:12;;;;;;;;;;;;;;;;;;5059495;27;118880;-63
2023/03/03 06:08:39;;;;;;;;;;;;;;;;;;5059352;27;119778;-64
2023/03/03 06:11:05;;;;;;;;;;;;;;;;;;5053461;27;113909;-63
2023/03/03 06:13:31;;;;;;;;;;;;;;;;;;5050307;27;118348;-63
2023/03/03 06:15:57;;;;;;;;;;;;;;;;;;5049281;27;115668;-63
2023/03/03 06:18:24;;;;;;;;;;;;;;;;;;5051153;27;119029;-63
2023/03/03 06:20:50;;;;;;;;;;;;;;;;;;5047696;27;119729;-63
2023/03/03 06:23:16;;;;;;;;;;;;;;;;;;5042031;27;113838;-65
2023/03/03 06:25:43;;;;;;;;;;;;;;;;;;5040241;28;117230;-64
2023/03/03 06:28:09;;;;;;;;;;;;;;;;;;5044047;27;120213;-63
2023/03/03 06:30:35;;;;;;;;;;;;;;;;;;5039004;27;114017;-63
2023/03/03 06:33:02;;;;;;;;;;;;;;;;;;5050521;27;118966;-63
2023/03/03 06:35:28;;;;;;;;;;;;;;;;;;5044080;27;113954;-63
2023/03/03 06:37:54;;;;;;;;;;;;;;;;;;5039793;27;118380;-64
2023/03/03 06:40:20;;;;;;;;;;;;;;;;;;5043058;27;118322;-64
2023/03/03 06:42:46;;;;;;;;;;;;;;;;;;5039165;28;112299;-63
2023/03/03 06:45:13;;;;;;;;;;;;;;;;;;5043146;27;119782;-63
2023/03/03 06:47:39;;;;;;;;;;;;;;;;;;5040965;27;120436;-63
2023/03/03 06:50:05;;;;;;;;;;;;;;;;;;5047194;27;113989;-64
2023/03/03 06:52:31;;;;;;;;;;;;;;;;;;5050892;27;119063;-64
2023/03/03 06:54:58;;;;;;;;;;;;;;;;;;5043770;27;119919;-65
2023/03/03 06:57:24;;;;;;;;;;;;;;;;;;5042642;27;119006;-63
2023/03/03 06:59:50;;;;;;;;;;;;;;;;;;5058628;27;118892;-64
2023/03/03 07:02:16;;;;;;;;;;;;;;;;;;5041943;27;114770;-63
2023/03/03 07:04:43;;;;;;;;;;;;;;;;;;5058224;27;119484;-64
2023/03/03 07:07:09;;;;;;;;;;;;;;;;;;5053012;27;118821;-64
2023/03/03 07:09:35;;;;;;;;;;;;;;;;;;5040351;27;114005;-63
2023/03/03 07:12:01;;;;;;;;;;;;;;;;;;5046270;27;117604;-64
2023/03/03 07:14:27;;;;;;;;;;;;;;;;;;5051581;27;118587;-63
2023/03/03 07:16:54;;;;;;;;;;;;;;;;;;5056436;27;114237;-63
2023/03/03 07:19:20;;;;;;;;;;;;;;;;;;5046881;27;119800;-65
2023/03/03 07:21:46;;;;;;;;;;;;;;;;;;5039098;28;113924;-63
2023/03/03 07:24:12;;;;;;;;;;;;;;;;;;5042658;27;119189;-63
2023/03/03 07:26:39;;;;;;;;;;;;;;;;;;5058223;27;119559;-64
2023/03/03 07:29:05;;;;;;;;;;;;;;;;;;5044763;27;112265;-63
2023/03/03 07:31:31;;;;;;;;;;;;;;;;;;5050787;27;117657;-63
2023/03/03 07:33:57;;;;;;;;;;;;;;;;;;5045769;27;119443;-64
2023/03/03 07:36:23;;;;;;;;;;;;;;;;;;5043702;27;114071;-64
2023/03/03 07:38:49;;;;;;;;;;;;;;;;;;5055010;27;118983;-65
2023/03/03 07:41:16;;;;;;;;;;;;;;;;;;5056988;27;113911;-64
2023/03/03 07:43:42;;;;;;;;;;;;;;;;;;5039609;27;119660;-64
2023/03/03 07:46:08;;;;;;;;;;;;;;;;;;5050415;27;119607;-64
2023/03/03 07:48:35;;;;;;;;;;;;;;;;;;5060945;27;113925;-64
2023/03/03 07:51:01;;;;;;;;;;;;;;;;;;5057044;27;118164;-63
2023/03/03 07:53:27;;;;;;;;;;;;;;;;;;5059387;27;119712;-64
2023/03/03 07:55:53;;;;;;;;;;;;;;;;;;5059765;27;114085;-64
2023/03/03 07:58:20;;;;;;;;;;;;;;;;;;5056920;27;119915;-64
2023/03/03 08:00:46;;;;;;;;;;;;;;;;;;5055860;27;117862;-63
2023/03/03 08:03:12;;;;;;;;;;;;;;;;;;5038637;28;119124;-64
2023/03/03 08:05:38;;;;;;;;;;;;;;;;;;5039682;28;118339;-63
2023/03/03 08:08:05;;;;;;;;;;;;;;;;;;5047278;27;114184;-63
2023/03/03 08:10:31;;;;;;;;;;;;;;;;;;5046857;27;119121;-63
2023/03/03 08:12:57;;;;;;;;;;;;;;;;;;5038883;27;118926;-63
2023/03/03 08:15:23;;;;;;;;;;;;;;;;;;5051222;27;113460;-63
2023/03/03 08:17:50;;;;;;;;;;;;;;;;;;5039730;28;118999;-63
2023/03/03 08:20:16;;;;;;;;;;;;;;;;;;5047826;27;120083;-64
2023/03/03 08:22:42;;;;;;;;;;;;;;;;;;5040538;27;88034;-65
2023/03/03 08:25:08;;;;;;;;;;;;;;;;;;5037004;27;119573;-64
2023/03/03 08:27:34;;;;;;;;;;;;;;;;;;5038923;27;112970;-63
2023/03/03 08:30:01;;;;;;;;;;;;;;;;;;5038337;28;119191;-64
2023/03/03 08:32:27;;;;;;;;;;;;;;;;;;5037998;27;119631;-65
2023/03/03 08:34:53;;;;;;;;;;;;;;;;;;5046426;27;114221;-64
2023/03/03 08:37:19;;;;;;;;;;;;;;;;;;5055751;27;119078;-64
2023/03/03 08:39:46;;;;;;;;;;;;;;;;;;5040176;27;119590;-64
2023/03/03 08:42:12;;;;;;;;;;;;;;;;;;5049698;27;114426;-64
2023/03/03 08:44:41;;;;;;;;;;;;;;;;;;5058694;27;120473;-64
2023/03/03 08:47:07;;;;;;;;;;;;;;;;;;5057993;27;114052;-64
2023/03/03 08:49:33;;;;;;;;;;;;;;;;;;5057914;27;119048;-65
2023/03/03 08:51:59;;;;;;;;;;;;;;;;;;5059176;27;119788;-64
2023/03/03 08:54:26;;;;;;;;;;;;;;;;;;5053979;27;114055;-64
2023/03/03 08:56:52;;;;;;;;;;;;;;;;;;5048293;27;119311;-64
2023/03/03 08:59:19;;;;;;;;;;;;;;;;;;5042737;27;120516;-64
2023/03/03 09:01:45;;;;;;;;;;;;;;;;;;5038345;27;113797;-65
2023/03/03 09:04:11;;;;;;;;;;;;;;;;;;5041613;28;118371;-64
2023/03/03 09:06:38;;;;;;;;;;;;;;;;;;5037046;27;113952;-66
2023/03/03 09:09:04;;;;;;;;;;;;;;;;;;5058006;27;117226;-64
2023/03/03 09:11:31;;;;;;;;;;;;;;;;;;5058446;27;118860;-64
2023/03/03 09:13:57;;;;;;;;;;;;;;;;;;5050969;27;114010;-65
2023/03/03 09:16:23;;;;;;;;;;;;;;;;;;5055845;27;119532;-65
2023/03/03 09:18:50;;;;;;;;;;;;;;;;;;5057887;27;117286;-65
2023/03/03 09:21:16;;;;;;;;;;;;;;;;;;5058808;27;114120;-65
2023/03/03 09:23:42;;;;;;;;;;;;;;;;;;5057391;27;118600;-65
2023/03/03 09:26:11;;;;;;;;;;;;;;;;;;5061246;27;108594;-65
2023/03/03 09:28:37;;;;;;;;;;;;;;;;;;5055381;27;116598;-65
2023/03/03 09:31:04;;;;;;;;;;;;;;;;;;5056873;27;120151;-66
2023/03/03 09:33:32;;;;;;;;;;;;;;;;;;5051211;27;114556;-65
2023/03/03 09:35:58;;;;;;;;;;;;;;;;;;5051247;27;119848;-65
2023/03/03 09:38:25;;;;;;;;;;;;;;;;;;5053477;27;118352;-65
2023/03/03 09:40:52;;;;;;;;;;;;;;;;;;5058753;27;113894;-65
2023/03/03 09:43:22;;;;;;;;;;;;;;;;;;5049541;27;118897;-64
2023/03/03 09:45:49;;;;;;;;;;;;;;;;;;5047270;27;119595;-64
2023/03/03 09:48:15;;;;;;;;;;;;;;;;;;5062715;27;114090;-65
2023/03/03 09:50:41;;;;;;;;;;;;;;;;;;5043869;27;117913;-66
2023/03/03 09:53:07;;;;;;;;;;;;;;;;;;5040268;27;114633;-66
2023/03/03 09:55:34;;;;;;;;;;;;;;;;;;5037977;27;119527;-66
2023/03/03 09:58:02;;;;;;;;;;;;;;;;;;5036418;28;120575;-65
2023/03/03 10:00:36;;;;;;;;;;;;;;;;;;5038212;28;113986;-64
2023/03/03 10:03:02;;;;;;;;;;;;;;;;;;5037325;27;119114;-65
2023/03/03 10:05:29;;;;;;;;;;;;;;;;;;5039455;27;119440;-65
2023/03/03 10:07:55;;;;;;;;;;;;;;;;;;5058619;27;112432;-65
2023/03/03 10:10:21;;;;;;;;;;;;;;;;;;5058126;27;118967;-65
2023/03/03 10:12:47;;;;;;;;;;;;;;;;;;5039056;27;113822;-65
2023/03/03 10:15:14;;;;;;;;;;;;;;;;;;5042159;27;119542;-64
2023/03/03 10:17:40;;;;;;;;;;;;;;;;;;5057956;27;118620;-64
2023/03/03 10:20:06;;;;;;;;;;;;;;;;;;5054189;27;112758;-65
2023/03/03 10:22:32;;;;;;;;;;;;;;;;;;5043062;27;118892;-64
2023/03/03 10:24:59;;;;;;;;;;;;;;;;;;5056588;27;119560;-65
2023/03/03 10:27:25;;;;;;;;;;;;;;;;;;5061396;27;114655;-66
2023/03/03 10:29:51;;;;;;;;;;;;;;;;;;5064338;27;118421;-63
2023/03/03 10:32:17;;;;;;;;;;;;;;;;;;5061262;27;113467;-63
2023/03/03 10:34:44;;;;;;;;;;;;;;;;;;5057697;27;119119;-64
2023/03/03 10:37:10;;;;;;;;;;;;;;;;;;5041484;27;118935;-63
2023/03/03 10:39:38;;;;;;;;;;;;;;;;;;5051654;27;114130;-64
2023/03/03 10:42:04;;;;;;;;;;;;;;;;;;5044304;27;118967;-66
2023/03/03 10:44:30;;;;;;;;;;;;;;;;;;5054430;27;118140;-66
2023/03/03 10:46:57;;;;;;;;;;;;;;;;;;5055473;27;112282;-67
2023/03/03 10:49:23;;;;;;;;;;;;;;;;;;5055594;27;119945;-66
2023/03/03 10:51:50;;;;;;;;;;;;;;;;;;5063301;27;119804;-66
2023/03/03 10:54:16;;;;;;;;;;;;;;;;;;5040898;28;119152;-67
2023/03/03 10:56:42;;;;;;;;;;;;;;;;;;5041056;28;119571;-65
2023/03/03 10:59:18;;;;;;;;;;;;;;;;;;5039752;28;113773;-67
2023/03/03 11:01:45;;;;;;;;;;;;;;;;;;5040453;27;119855;-67
2023/03/03 11:04:11;;;;;;;;;;;;;;;;;;5037991;27;118983;-67
2023/03/03 11:06:37;;;;;;;;;;;;;;;;;;5045502;27;112222;-66
2023/03/03 11:09:03;;;;;;;;;;;;;;;;;;5040745;28;119188;-67
2023/03/03 11:11:30;;;;;;;;;;;;;;;;;;5039868;28;118271;-67
2023/03/03 11:13:56;;;;;;;;;;;;;;;;;;5051312;27;112297;-69
2023/03/03 11:16:22;;;;;;;;;;;;;;;;;;5057891;27;119059;-66
2023/03/03 11:18:49;;;;;;;;;;;;;;;;;;5059668;27;114097;-66
2023/03/03 11:21:15;;;;;;;;;;;;;;;;;;5060871;27;119132;-66
2023/03/03 11:23:41;;;;;;;;;;;;;;;;;;5060297;27;120203;-66
2023/03/03 11:26:07;;;;;;;;;;;;;;;;;;5059618;27;113919;-66
2023/03/03 11:28:33;;;;;;;;;;;;;;;;;;5058093;27;119538;-67
2023/03/03 11:31:00;;;;;;;;;;;;;;;;;;5049362;27;118101;-66
2023/03/03 11:33:26;;;;;;;;;;;;;;;;;;5047541;27;114179;-67
2023/03/03 11:35:52;;;;;;;;;;;;;;;;;;5042651;28;119222;-67
2023/03/03 11:38:18;;;;;;;;;;;;;;;;;;5041154;27;114030;-67
2023/03/03 11:40:45;;;;;;;;;;;;;;;;;;5041828;27;118586;-67
2023/03/03 11:43:11;;;;;;;;;;;;;;;;;;5040538;27;119566;-66
2023/03/03 11:45:38;;;;;;;;;;;;;;;;;;5059798;27;112519;-66
2023/03/03 11:48:04;;;;;;;;;;;;;;;;;;5050933;27;119616;-66
2023/03/03 11:50:30;;;;;;;;;;;;;;;;;;5039950;28;119617;-66
2023/03/03 11:52:56;;;;;;;;;;;;;;;;;;5040586;27;113946;-66
2023/03/03 11:55:22;;;;;;;;;;;;;;;;;;5044509;27;119198;-67
2023/03/03 11:57:49;;;;;;;;;;;;;;;;;;5061335;27;119880;-65
2023/03/03 12:00:15;;;;;;;;;;;;;;;;;;5058238;27;119055;-65
2023/03/03 12:02:42;;;;;;;;;;;;;;;;;;5059908;27;119983;-67
2023/03/03 12:05:09;;;;;;;;;;;;;;;;;;5060295;27;113982;-66
2023/03/03 12:07:35;;;;;;;;;;;;;;;;;;5056402;27;118892;-66
2023/03/03 12:10:01;;;;;;;;;;;;;;;;;;5052951;27;120251;-65
2023/03/03 12:12:27;;;;;;;;;;;;;;;;;;5059605;27;111553;-66
2023/03/03 12:14:54;;;;;;;;;;;;;;;;;;5044041;27;119387;-66
2023/03/03 12:17:20;;;;;;;;;;;;;;;;;;5050394;27;117575;-66
2023/03/03 12:19:46;;;;;;;;;;;;;;;;;;5042585;27;113969;-66
2023/03/03 12:22:12;;;;;;;;;;;;;;;;;;5038950;27;119758;-65
2023/03/03 12:24:40;;;;;;;;;;;;;;;;;;5040743;27;114074;-65
2023/03/03 12:27:06;;;;;;;;;;;;;;;;;;5046073;27;119960;-67
2023/03/03 12:29:32;;;;;;;;;;;;;;;;;;5048232;27;116702;-66
2023/03/03 12:31:58;;;;;;;;;;;;;;;;;;5047710;27;112506;-65
2023/03/03 12:34:25;;;;;;;;;;;;;;;;;;5059598;27;119338;-66
2023/03/03 12:36:51;;;;;;;;;;;;;;;;;;5045472;27;119744;-67
2023/03/03 12:39:17;;;;;;;;;;;;;;;;;;5052514;27;114229;-65
2023/03/03 12:42:00;;;;;;;;;;;;;;;;;;5038828;27;119625;-67
2023/03/03 12:44:30;;;;;;;;;;;;;;;;;;5043274;27;114632;-67
2023/03/03 12:46:56;;;;;;;;;;;;;;;;;;5059123;27;119090;-66
2023/03/03 12:49:22;;;;;;;;;;;;;;;;;;5043389;27;120429;-66
2023/03/03 12:51:49;;;;;;;;;;;;;;;;;;5039288;27;113989;-67
2023/03/03 12:54:15;;;;;;;;;;;;;;;;;;5039092;28;119005;-67
2023/03/03 12:56:41;;;;;;;;;;;;;;;;;;5052275;27;120210;-66
2023/03/03 12:59:10;;;;;;;;;;;;;;;;;;5058512;27;114259;-66
2023/03/03 13:01:36;;;;;;;;;;;;;;;;;;5062214;27;119153;-66
2023/03/03 13:04:03;;;;;;;;;;;;;;;;;;5054858;27;112262;-66
2023/03/03 13:06:30;;;;;;;;;;;;;;;;;;5059149;27;118482;-66
2023/03/03 13:08:56;;;;;;;;;;;;;;;;;;5058696;27;119549;-66
2023/03/03 13:11:22;;;;;;;;;;;;;;;;;;5058834;27;114276;-66
2023/03/03 13:13:49;;;;;;;;;;;;;;;;;;5052319;27;117225;-66
2023/03/03 13:16:15;;;;;;;;;;;;;;;;;;5040844;27;119679;-68
2023/03/03 13:18:42;;;;;;;;;;;;;;;;;;5038187;27;113760;-65
2023/03/03 13:21:09;;;;;;;;;;;;;;;;;;5055829;27;119563;-65
2023/03/03 13:23:37;;;;;;;;;;;;;;;;;;5057132;27;118500;-66
2023/03/03 13:26:03;;;;;;;;;;;;;;;;;;5053080;27;119077;-65
2023/03/03 13:28:29;;;;;;;;;;;;;;;;;;5054941;27;119665;-66
2023/03/03 13:30:55;;;;;;;;;;;;;;;;;;5044218;27;113847;-66
2023/03/03 13:33:21;;;;;;;;;;;;;;;;;;5038602;28;118380;-65
2023/03/03 13:35:48;;;;;;;;;;;;;;;;;;5040794;27;120082;-65
2023/03/03 13:38:14;;;;;;;;;;;;;;;;;;5058461;27;114036;-66
2023/03/03 13:40:40;;;;;;;;;;;;;;;;;;5058814;27;119694;-66
2023/03/03 13:43:06;;;;;;;;;;;;;;;;;;5039069;27;119252;-65
2023/03/03 13:45:33;;;;;;;;;;;;;;;;;;5059196;27;112219;-65
2023/03/03 13:47:59;;;;;;;;;;;;;;;;;;5058720;27;119672;-65
2023/03/03 13:50:25;;;;;;;;;;;;;;;;;;5054403;27;113318;-66
2023/03/03 13:52:51;;;;;;;;;;;;;;;;;;5057442;27;117722;-65
2023/03/03 13:55:17;;;;;;;;;;;;;;;;;;5058862;27;119187;-66
2023/03/03 13:57:46;;;;;;;;;;;;;;;;;;5057543;27;112443;-66
2023/03/03 14:00:12;;;;;;;;;;;;;;;;;;5058350;27;119202;-65
2023/03/03 14:02:39;;;;;;;;;;;;;;;;;;5060170;27;120470;-65
2023/03/03 14:05:05;;;;;;;;;;;;;;;;;;5061955;27;114262;-65
2023/03/03 14:07:31;;;;;;;;;;;;;;;;;;5063502;27;118985;-65
2023/03/03 14:09:57;;;;;;;;;;;;;;;;;;5061919;27;114052;-65
2023/03/03 14:12:24;;;;;;;;;;;;;;;;;;5060939;27;118409;-65
2023/03/03 14:14:50;;;;;;;;;;;;;;;;;;5050000;27;119732;-65
2023/03/03 14:17:16;;;;;;;;;;;;;;;;;;5062286;27;113635;-65
2023/03/03 14:19:42;;;;;;;;;;;;;;;;;;5061898;27;119126;-65
2023/03/03 14:22:09;;;;;;;;;;;;;;;;;;5059391;27;120286;-68
2023/03/03 14:24:37;;;;;;;;;;;;;;;;;;5061025;27;114092;-65
2023/03/03 14:27:03;;;;;;;;;;;;;;;;;;5049858;27;118888;-67
2023/03/03 14:29:29;;;;;;;;;;;;;;;;;;5044211;28;118104;-65
2023/03/03 14:31:55;;;;;;;;;;;;;;;;;;5041387;28;119285;-64
2023/03/03 14:34:22;;;;;;;;;;;;;;;;;;5051978;27;118205;-64
2023/03/03 14:36:48;;;;;;;;;;;;;;;;;;5042996;27;114175;-63
2023/03/03 14:39:14;;;;;;;;;;;;;;;;;;5042164;27;119086;-65
2023/03/03 14:41:40;;;;;;;;;;;;;;;;;;5040631;27;118943;-64
2023/03/03 14:44:07;;;;;;;;;;;;;;;;;;5041640;27;114017;-63
2023/03/03 14:46:34;;;;;;;;;;;;;;;;;;5044278;27;118507;-64
2023/03/03 14:49:00;;;;;;;;;;;;;;;;;;5055928;27;119482;-63
2023/03/03 14:51:27;;;;;;;;;;;;;;;;;;5057574;27;117318;-64
2023/03/03 14:53:54;;;;;;;;;;;;;;;;;;5048576;27;117917;-66
2023/03/03 14:56:21;;;;;;;;;;;;;;;;;;5058554;27;113862;-65
2023/03/03 14:58:47;;;;;;;;;;;;;;;;;;5055125;27;119197;-66
2023/03/03 15:01:14;;;;;;;;;;;;;;;;;;5060351;27;119592;-67
2023/03/03 15:03:40;;;;;;;;;;;;;;;;;;5054673;27;114031;-64
2023/03/03 15:06:06;;;;;;;;;;;;;;;;;;5053223;27;117178;-66
2023/03/03 15:08:33;;;;;;;;;;;;;;;;;;5061449;27;118944;-66
2023/03/03 15:10:59;;;;;;;;;;;;;;;;;;5062909;27;112917;-66
2023/03/03 15:13:25;;;;;;;;;;;;;;;;;;5057922;27;119991;-66
2023/03/03 15:15:51;;;;;;;;;;;;;;;;;;5059782;27;114043;-64
2023/03/03 15:18:18;;;;;;;;;;;;;;;;;;5052858;27;117840;-66
2023/03/03 15:20:44;;;;;;;;;;;;;;;;;;5039916;27;119644;-66
2023/03/03 15:23:10;;;;;;;;;;;;;;;;;;5040464;28;114144;-66
2023/03/03 15:25:37;;;;;;;;;;;;;;;;;;5041098;27;119150;-66
2023/03/03 15:28:09;;;;;;;;;;;;;;;;;;5058739;27;118320;-66
2023/03/03 15:30:35;;;;;;;;;;;;;;;;;;5060762;27;114696;-66
2023/03/03 15:33:01;;;;;;;;;;;;;;;;;;5060606;27;117666;-66
2023/03/03 15:35:28;;;;;;;;;;;;;;;;;;5051767;27;114034;-66
2023/03/03 15:37:54;;;;;;;;;;;;;;;;;;5040212;27;117624;-68
2023/03/03 15:40:20;;;;;;;;;;;;;;;;;;5039656;28;120556;-64
2023/03/03 15:42:47;;;;;;;;;;;;;;;;;;5048205;27;114158;-65
2023/03/03 15:45:13;;;;;;;;;;;;;;;;;;5057014;27;118994;-66
2023/03/03 15:47:39;;;;;;;;;;;;;;;;;;5039216;27;119651;-65
2023/03/03 15:50:06;;;;;;;;;;;;;;;;;;5040213;28;112463;-64
2023/03/03 15:52:33;;;;;;;;;;;;;;;;;;5040035;27;119060;-64
2023/03/03 15:54:59;;;;;;;;;;;;;;;;;;5045970;27;119237;-65
2023/03/03 15:57:25;;;;;;;;;;;;;;;;;;5040133;27;118842;-65
2023/03/03 15:59:51;;;;;;;;;;;;;;;;;;5039914;28;118105;-64
2023/03/03 16:02:18;;;;;;;;;;;;;;;;;;5039957;28;114078;-67
2023/03/03 16:04:44;;;;;;;;;;;;;;;;;;5049441;27;119016;-64
2023/03/03 16:07:10;;;;;;;;;;;;;;;;;;5059577;27;119605;-65
2023/03/03 16:09:37;;;;;;;;;;;;;;;;;;5060222;27;113933;-65
2023/03/03 16:12:03;;;;;;;;;;;;;;;;;;5054473;27;118289;-66
2023/03/03 16:14:29;;;;;;;;;;;;;;;;;;5051706;27;119824;-67
2023/03/03 16:16:55;;;;;;;;;;;;;;;;;;5052475;27;112380;-65
2023/03/03 16:19:22;;;;;;;;;;;;;;;;;;5039844;28;119481;-65
2023/03/03 16:21:48;;;;;;;;;;;;;;;;;;5047741;27;113543;-66